Portada
METAR-TAF:

METAR-TAF

Aeropuertos :

Aeropuerto de Ajaccio-Napoleón Bonaparte

Ajaccio, Francia

latitud: 41-55N, longitud: 008-48E, altitud: 6 m

Observación

El informe se hizo hace 18 minutos, a las 11:30 UTC
Viento 9 kt del oeste-suroeste
Temperatura 16°C
Humedad 63%
Presión 1024 hPa
Visibilidad 10 km o más
sin nubes por debajo de 1500 m y sin presencia de cumulonimbus.

METAR: LFKJ 201130Z AUTO 24009KT CAVOK 16/09 Q1024 NOSIG

Hora: 12:48 (11:48 UTC)

Pronóstico

El informe se hizo hace 3 horas y 48 minutos, a las 08:00 UTC
Pronóstico válido del 20 a las 09 UTC al 21 a las 09 UTC
Viento 8 kt del oeste-suroeste
Visibilidad 10 km o más
sin nubes por debajo de 1500 m y sin presencia de cumulonimbus.
Evolucionando progresivamente
del 20 a las 18 UTC al 20 a las 21 UTC
Viento 4 kt del noreste

TAF: LFKJ 200800Z 2009/2109 24008KT CAVOK BECMG 2018/2021 05004KT

Observaciones y pronósticos meteorológicos de más de 4000 aeropuertos (mensajes METAR y TAF).

Los puntos amarillos y rojos representan las estaciones disponibles.

Ponga el ratón en el punto deseado para ver el nombre de la estación.

Haga clic para ver las observaciones y los pronósticos meteorológicos.

Para cambiar el mapa : haga clic en los botones verdes con una cruz de color negro para hacer un zoom, en el botón verde con un guión para alejar o en las flechas verdes para mapas adyacentes.


METAR-TAF: